RYR84KK LEAM-EBCI
Flight info
| Callsign | RYR84KK |
|---|---|
| Flight time | N/A |
| Altitude | 34000 |
| Route | AGIDO M192 ARPEX DCT BAZAS M192 BLN N865 VTB N867 RBO DCT OSTIX N867 DGO L176 LUSEM DCT LULUT DCT ADABI DCT BOKNO UN858 VANAD UN874 BAMES UT191 PODEM UN873 BAZOS DCT BELDI DCT VEKIN Z173 ARVOL |
| Aircraft | B738/M-SDE3FGILRWY/SB1 |
Departure
| Time | 2026-04-28 18:28 |
|---|---|
| Airport | Almería Airport (LEAM) |
Arrival
| Time | N/A |
|---|---|
| Airport | Brussels South Charleroi Airport (EBCI) |
| Time | Latitude | Longitude | Altitude | Speed | Heading |
|---|---|---|---|---|---|
| 2026-04-28 18:05 | 36.84652 | -2.37249 | 41 ft | 0 kts | 112° |
| 2026-04-28 18:20 | 36.84652 | -2.37248 | 69 ft | 0 kts | 112° |
| 2026-04-28 18:20 | 36.84650 | -2.37243 | 68 ft | 1 kts | 112° |
| 2026-04-28 18:21 | 36.84647 | -2.37232 | 62 ft | 0 kts | 112° |
| 2026-04-28 18:22 | 36.84635 | -2.37225 | 62 ft | 4 kts | 156° |
| 2026-04-28 18:23 | 36.84606 | -2.37194 | 67 ft | 6 kts | 107° |
| 2026-04-28 18:23 | 36.84612 | -2.37141 | 60 ft | 7 kts | 74° |
| 2026-04-28 18:23 | 36.84630 | -2.37071 | 63 ft | 11 kts | 72° |
| 2026-04-28 18:23 | 36.84650 | -2.36964 | 66 ft | 13 kts | 95° |
| 2026-04-28 18:24 | 36.84611 | -2.36860 | 59 ft | 13 kts | 95° |
| 2026-04-28 18:24 | 36.84623 | -2.36787 | 64 ft | 13 kts | 72° |
| 2026-04-28 18:24 | 36.84658 | -2.36647 | 59 ft | 12 kts | 73° |
| 2026-04-28 18:24 | 36.84684 | -2.36540 | 57 ft | 14 kts | 73° |
| 2026-04-28 18:25 | 36.84716 | -2.36408 | 57 ft | 18 kts | 73° |
| 2026-04-28 18:25 | 36.84756 | -2.36248 | 56 ft | 20 kts | 73° |
| 2026-04-28 18:25 | 36.84797 | -2.36081 | 61 ft | 20 kts | 73° |
| 2026-04-28 18:26 | 36.84874 | -2.35764 | 59 ft | 19 kts | 73° |
| 2026-04-28 18:26 | 36.84912 | -2.35610 | 60 ft | 18 kts | 72° |
| 2026-04-28 18:26 | 36.84948 | -2.35466 | 61 ft | 17 kts | 74° |
| 2026-04-28 18:26 | 36.84907 | -2.35338 | 63 ft | 17 kts | 150° |
| 2026-04-28 18:27 | 36.84805 | -2.35354 | 58 ft | 13 kts | 234° |
| 2026-04-28 18:27 | 36.84791 | -2.35399 | 56 ft | 0 kts | 252° |
| 2026-04-28 18:27 | 36.84790 | -2.35403 | 57 ft | 6 kts | 252° |
| 2026-04-28 18:27 | 36.84706 | -2.35744 | 58 ft | 76 kts | 253° |
| 2026-04-28 18:28 | 36.84486 | -2.36637 | 57 ft | 137 kts | 253° |
| 2026-04-28 18:28 | 36.84157 | -2.37920 | 316 ft | 164 kts | 250° |
| 2026-04-28 18:28 | 36.83785 | -2.39289 | 1010 ft | 169 kts | 251° |
| 2026-04-28 18:28 | 36.83455 | -2.40721 | 1702 ft | 179 kts | 254° |
| 2026-04-28 18:29 | 36.83107 | -2.42349 | 1963 ft | 208 kts | 254° |
| 2026-04-28 18:29 | 36.82708 | -2.44186 | 2177 ft | 229 kts | 254° |
| 2026-04-28 18:29 | 36.82272 | -2.46161 | 2523 ft | 247 kts | 255° |
| 2026-04-28 18:29 | 36.81789 | -2.48302 | 2980 ft | 263 kts | 255° |
| 2026-04-28 18:30 | 36.81277 | -2.50534 | 3653 ft | 271 kts | 255° |
| 2026-04-28 18:30 | 36.81101 | -2.51296 | 3912 ft | 272 kts | 255° |
| 2026-04-28 18:30 | 36.80214 | -2.55113 | 5190 ft | 279 kts | 255° |
| 2026-04-28 18:30 | 36.79686 | -2.57464 | 5926 ft | 283 kts | 259° |
| 2026-04-28 18:31 | 36.79816 | -2.59901 | 6609 ft | 286 kts | 294° |
| 2026-04-28 18:31 | 36.81009 | -2.61826 | 7349 ft | 283 kts | 327° |
| 2026-04-28 18:31 | 36.82840 | -2.62634 | 8013 ft | 284 kts | 0° |
| 2026-04-28 18:31 | 36.84756 | -2.62116 | 8687 ft | 286 kts | 25° |
| 2026-04-28 18:32 | 36.86621 | -2.61181 | 9312 ft | 295 kts | 15° |
| 2026-04-28 18:32 | 36.88656 | -2.60679 | 9980 ft | 300 kts | 12° |
| 2026-04-28 18:32 | 36.90732 | -2.60070 | 10345 ft | 317 kts | 15° |
| 2026-04-28 18:32 | 36.92910 | -2.59220 | 10512 ft | 339 kts | 20° |
| 2026-04-28 18:33 | 36.95141 | -2.58105 | 10888 ft | 350 kts | 25° |
| 2026-04-28 18:33 | 36.97339 | -2.56727 | 11506 ft | 355 kts | 30° |
| 2026-04-28 18:33 | 36.99452 | -2.55090 | 12176 ft | 359 kts | 35° |
| 2026-04-28 18:33 | 37.01453 | -2.53204 | 12891 ft | 361 kts | 40° |
| 2026-04-28 18:34 | 37.03334 | -2.51095 | 13586 ft | 365 kts | 43° |
| 2026-04-28 18:34 | 37.04693 | -2.49835 | 13980 ft | 371 kts | 27° |
| 2026-04-28 18:34 | 37.07177 | -2.49006 | 14640 ft | 374 kts | 0° |
| 2026-04-28 18:34 | 37.09710 | -2.49617 | 15370 ft | 374 kts | 334° |
| 2026-04-28 18:35 | 37.11789 | -2.51524 | 16085 ft | 372 kts | 308° |
| 2026-04-28 18:35 | 37.13106 | -2.54293 | 16802 ft | 372 kts | 295° |
| 2026-04-28 18:35 | 37.14445 | -2.57096 | 17427 ft | 379 kts | 308° |
| 2026-04-28 18:35 | 37.16945 | -2.60191 | 18309 ft | 384 kts | 319° |
| 2026-04-28 18:36 | 37.19032 | -2.62272 | 18869 ft | 388 kts | 321° |
| 2026-04-28 18:36 | 37.20499 | -2.63684 | 19266 ft | 390 kts | 321° |
| 2026-04-28 18:36 | 37.22632 | -2.65807 | 19856 ft | 392 kts | 320° |
| 2026-04-28 18:36 | 37.24757 | -2.67977 | 20429 ft | 395 kts | 320° |
| 2026-04-28 18:37 | 37.26884 | -2.70173 | 21036 ft | 397 kts | 320° |
| 2026-04-28 18:37 | 37.29017 | -2.72380 | 21595 ft | 399 kts | 320° |
| 2026-04-28 18:37 | 37.31172 | -2.74610 | 22102 ft | 403 kts | 320° |
| 2026-04-28 18:37 | 37.33346 | -2.76859 | 22616 ft | 406 kts | 320° |
| 2026-04-28 18:38 | 37.35537 | -2.79124 | 23153 ft | 409 kts | 320° |
| 2026-04-28 18:38 | 37.37745 | -2.81406 | 23645 ft | 412 kts | 320° |
| 2026-04-28 18:38 | 37.39962 | -2.83701 | 24074 ft | 414 kts | 320° |
| 2026-04-28 18:38 | 37.42195 | -2.86013 | 24531 ft | 416 kts | 320° |
| 2026-04-28 18:39 | 37.44436 | -2.88331 | 24932 ft | 419 kts | 320° |
| 2026-04-28 18:39 | 37.46671 | -2.90644 | 25313 ft | 423 kts | 320° |
| 2026-04-28 18:39 | 37.48983 | -2.93038 | 25700 ft | 426 kts | 320° |
| 2026-04-28 18:39 | 37.51242 | -2.95380 | 26097 ft | 428 kts | 320° |
| 2026-04-28 18:40 | 37.53543 | -2.97767 | 26510 ft | 430 kts | 320° |
| 2026-04-28 18:40 | 37.55855 | -3.00168 | 26894 ft | 432 kts | 320° |
| 2026-04-28 18:40 | 37.58184 | -3.02588 | 27269 ft | 435 kts | 320° |
| 2026-04-28 18:40 | 37.60525 | -3.05027 | 27640 ft | 437 kts | 320° |
| 2026-04-28 18:41 | 37.62874 | -3.07479 | 27945 ft | 441 kts | 319° |
| 2026-04-28 18:41 | 37.65248 | -3.09962 | 28276 ft | 444 kts | 320° |
| 2026-04-28 18:41 | 37.67627 | -3.12451 | 28639 ft | 446 kts | 320° |
| 2026-04-28 18:41 | 37.70018 | -3.14954 | 29069 ft | 446 kts | 319° |
| 2026-04-28 18:42 | 37.72404 | -3.17452 | 29604 ft | 444 kts | 319° |
| 2026-04-28 18:42 | 37.74777 | -3.19936 | 30101 ft | 442 kts | 319° |
| 2026-04-28 18:42 | 37.77141 | -3.22405 | 30473 ft | 442 kts | 319° |
| 2026-04-28 18:42 | 37.79511 | -3.24877 | 30878 ft | 440 kts | 319° |
| 2026-04-28 18:43 | 37.81867 | -3.27336 | 31313 ft | 438 kts | 320° |
| 2026-04-28 18:43 | 37.84214 | -3.29787 | 31729 ft | 437 kts | 319° |
| 2026-04-28 18:43 | 37.86555 | -3.32236 | 32104 ft | 436 kts | 319° |
| 2026-04-28 18:43 | 37.88888 | -3.34679 | 32495 ft | 435 kts | 319° |
| 2026-04-28 18:44 | 37.91210 | -3.37114 | 32892 ft | 433 kts | 319° |
| 2026-04-28 18:44 | 37.95805 | -3.41938 | 33855 ft | 426 kts | 319° |
| 2026-04-28 18:44 | 37.98099 | -3.44350 | 33879 ft | 431 kts | 319° |
| 2026-04-28 18:45 | 38.02727 | -3.49223 | 33895 ft | 432 kts | 318° |
| 2026-04-28 18:45 | 38.07309 | -3.54052 | 33890 ft | 425 kts | 318° |
| 2026-04-28 18:46 | 38.11857 | -3.58854 | 33901 ft | 426 kts | 319° |
| 2026-04-28 18:46 | 38.14341 | -3.60909 | 33888 ft | 430 kts | 334° |
| 2026-04-28 18:46 | 38.17196 | -3.62038 | 33904 ft | 433 kts | 348° |
| 2026-04-28 18:47 | 38.20213 | -3.62224 | 33908 ft | 436 kts | 1° |
| 2026-04-28 18:47 | 38.23244 | -3.61934 | 33907 ft | 437 kts | 2° |
| 2026-04-28 18:47 | 38.29304 | -3.61235 | 33897 ft | 437 kts | 3° |
| 2026-04-28 18:48 | 38.35328 | -3.60575 | 33900 ft | 437 kts | 2° |
| 2026-04-28 18:48 | 38.41396 | -3.59963 | 33900 ft | 437 kts | 2° |
| 2026-04-28 18:49 | 38.46435 | -3.59471 | 33901 ft | 437 kts | 2° |
| 2026-04-28 18:49 | 38.53504 | -3.58782 | 33903 ft | 436 kts | 2° |
| 2026-04-28 18:50 | 38.59550 | -3.58191 | 33900 ft | 435 kts | 2° |
| 2026-04-28 18:50 | 38.65583 | -3.57599 | 33902 ft | 435 kts | 2° |
| 2026-04-28 18:51 | 38.71618 | -3.57005 | 33898 ft | 435 kts | 2° |
| 2026-04-28 18:51 | 38.77654 | -3.56411 | 33900 ft | 435 kts | 2° |
| 2026-04-28 18:52 | 38.83693 | -3.55815 | 33895 ft | 436 kts | 2° |
| 2026-04-28 18:52 | 38.89750 | -3.55216 | 33889 ft | 438 kts | 2° |
| 2026-04-28 18:53 | 38.95835 | -3.54614 | 33894 ft | 440 kts | 2° |
| 2026-04-28 18:53 | 39.01954 | -3.54007 | 33888 ft | 442 kts | 2° |
| 2026-04-28 18:54 | 39.08096 | -3.53402 | 33885 ft | 444 kts | 2° |
| 2026-04-28 18:54 | 39.14273 | -3.52793 | 33882 ft | 446 kts | 2° |
| 2026-04-28 18:55 | 39.19418 | -3.52284 | 33879 ft | 447 kts | 2° |
| 2026-04-28 18:55 | 39.26677 | -3.51564 | 33877 ft | 448 kts | 2° |
| 2026-04-28 18:56 | 39.32899 | -3.50945 | 33878 ft | 449 kts | 2° |
| 2026-04-28 18:56 | 39.39134 | -3.50325 | 33887 ft | 449 kts | 2° |
| 2026-04-28 18:57 | 39.45372 | -3.49703 | 33885 ft | 450 kts | 2° |
| 2026-04-28 18:57 | 39.51574 | -3.49083 | 33884 ft | 450 kts | 2° |
| 2026-04-28 18:58 | 39.57828 | -3.48457 | 33885 ft | 451 kts | 1° |
| 2026-04-28 18:58 | 39.64083 | -3.47825 | 33879 ft | 451 kts | 1° |
| 2026-04-28 18:59 | 39.70338 | -3.47189 | 33881 ft | 451 kts | 1° |
| 2026-04-28 18:59 | 39.76600 | -3.46553 | 33886 ft | 451 kts | 1° |
| 2026-04-28 19:00 | 39.82845 | -3.45610 | 33870 ft | 453 kts | 5° |
| 2026-04-28 19:00 | 39.89068 | -3.44308 | 33873 ft | 453 kts | 6° |
| 2026-04-28 19:01 | 39.95283 | -3.42996 | 33875 ft | 452 kts | 6° |
| 2026-04-28 19:01 | 40.01493 | -3.41728 | 33869 ft | 452 kts | 5° |
| 2026-04-28 19:02 | 40.07704 | -3.40480 | 33870 ft | 451 kts | 5° |
| 2026-04-28 19:02 | 40.13901 | -3.39237 | 33866 ft | 450 kts | 5° |
| 2026-04-28 19:03 | 40.20092 | -3.37992 | 33867 ft | 450 kts | 5° |
| 2026-04-28 19:03 | 40.26282 | -3.36744 | 33862 ft | 450 kts | 5° |
| 2026-04-28 19:04 | 40.32469 | -3.35493 | 33864 ft | 450 kts | 5° |
| 2026-04-28 19:04 | 40.38655 | -3.34241 | 33863 ft | 450 kts | 5° |
| 2026-04-28 19:05 | 40.44803 | -3.32994 | 33869 ft | 450 kts | 5° |
| 2026-04-28 19:05 | 40.51004 | -3.31734 | 33861 ft | 451 kts | 5° |
| 2026-04-28 19:06 | 40.56192 | -3.30678 | 33859 ft | 451 kts | 5° |
| 2026-04-28 19:06 | 40.63396 | -3.29208 | 33865 ft | 451 kts | 5° |
| 2026-04-28 19:07 | 40.69601 | -3.27940 | 33875 ft | 451 kts | 5° |
| 2026-04-28 19:07 | 40.75800 | -3.26671 | 33873 ft | 451 kts | 5° |
| 2026-04-28 19:08 | 40.82000 | -3.25399 | 33882 ft | 451 kts | 5° |
| 2026-04-28 19:08 | 40.88200 | -3.24104 | 33899 ft | 452 kts | 5° |
| 2026-04-28 19:09 | 40.94410 | -3.22707 | 33887 ft | 453 kts | 6° |
| 2026-04-28 19:09 | 41.00628 | -3.21292 | 33885 ft | 454 kts | 6° |
| 2026-04-28 19:10 | 41.06860 | -3.19881 | 33889 ft | 455 kts | 6° |
| 2026-04-28 19:10 | 41.13107 | -3.18471 | 33902 ft | 456 kts | 5° |
| 2026-04-28 19:11 | 41.19370 | -3.17056 | 33891 ft | 457 kts | 5° |
| 2026-04-28 19:11 | 41.25632 | -3.15638 | 33889 ft | 456 kts | 5° |
| 2026-04-28 19:12 | 41.31890 | -3.14218 | 33892 ft | 456 kts | 5° |
| 2026-04-28 19:12 | 41.38091 | -3.12807 | 33896 ft | 455 kts | 5° |
| 2026-04-28 19:13 | 41.44318 | -3.11389 | 33881 ft | 454 kts | 5° |
| 2026-04-28 19:13 | 41.50533 | -3.09970 | 33888 ft | 452 kts | 5° |
| 2026-04-28 19:14 | 41.56725 | -3.08567 | 33892 ft | 451 kts | 5° |
| 2026-04-28 19:14 | 41.62909 | -3.07169 | 33882 ft | 450 kts | 5° |
| 2026-04-28 19:15 | 41.69071 | -3.05771 | 33886 ft | 449 kts | 5° |
| 2026-04-28 19:15 | 41.74176 | -3.04610 | 33899 ft | 448 kts | 5° |
| 2026-04-28 19:16 | 41.81354 | -3.02962 | 33899 ft | 447 kts | 6° |
| 2026-04-28 19:16 | 41.87488 | -3.01549 | 33912 ft | 448 kts | 6° |
| 2026-04-28 19:17 | 41.93620 | -3.00134 | 33909 ft | 448 kts | 6° |
| 2026-04-28 19:17 | 41.99727 | -2.98722 | 33929 ft | 448 kts | 6° |
| 2026-04-28 19:18 | 42.05878 | -2.97298 | 33919 ft | 449 kts | 6° |
| 2026-04-28 19:18 | 42.12027 | -2.95871 | 33924 ft | 449 kts | 6° |
| 2026-04-28 19:19 | 42.18176 | -2.94441 | 33937 ft | 448 kts | 6° |
| 2026-04-28 19:19 | 42.24306 | -2.93013 | 33931 ft | 447 kts | 6° |
| 2026-04-28 19:20 | 42.30430 | -2.91584 | 33919 ft | 446 kts | 6° |
| 2026-04-28 19:20 | 42.36542 | -2.90154 | 33910 ft | 445 kts | 6° |
| 2026-04-28 19:21 | 42.42621 | -2.88574 | 33914 ft | 447 kts | 14° |
| 2026-04-28 19:21 | 42.45515 | -2.86995 | 33938 ft | 450 kts | 25° |
| 2026-04-28 19:21 | 42.48190 | -2.84773 | 33914 ft | 453 kts | 36° |
| 2026-04-28 19:22 | 42.51390 | -2.81043 | 33932 ft | 454 kts | 40° |
| 2026-04-28 19:22 | 42.57617 | -2.73350 | 33939 ft | 456 kts | 41° |
| 2026-04-28 19:23 | 42.62339 | -2.67577 | 33929 ft | 458 kts | 40° |
| 2026-04-28 19:23 | 42.67097 | -2.61808 | 33936 ft | 459 kts | 40° |
| 2026-04-28 19:24 | 42.71873 | -2.56017 | 33931 ft | 461 kts | 40° |
| 2026-04-28 19:24 | 42.76628 | -2.50239 | 33936 ft | 462 kts | 40° |
| 2026-04-28 19:25 | 42.81418 | -2.44402 | 33926 ft | 462 kts | 40° |
| 2026-04-28 19:25 | 42.86203 | -2.38558 | 33934 ft | 462 kts | 40° |
| 2026-04-28 19:26 | 42.90990 | -2.32698 | 33929 ft | 462 kts | 40° |
| 2026-04-28 19:26 | 42.95767 | -2.26839 | 33922 ft | 461 kts | 40° |
| 2026-04-28 19:27 | 42.99761 | -2.21928 | 33941 ft | 460 kts | 40° |
| 2026-04-28 19:27 | 43.04510 | -2.16057 | 33954 ft | 460 kts | 41° |
| 2026-04-28 19:28 | 43.09265 | -2.10167 | 33951 ft | 461 kts | 41° |
| 2026-04-28 19:28 | 43.14029 | -2.04262 | 33953 ft | 462 kts | 41° |
| 2026-04-28 19:29 | 43.17990 | -1.99346 | 33949 ft | 463 kts | 41° |
| 2026-04-28 19:29 | 43.23535 | -1.92446 | 33949 ft | 464 kts | 41° |
| 2026-04-28 19:30 | 43.28310 | -1.86490 | 33933 ft | 464 kts | 41° |
| 2026-04-28 19:30 | 43.33367 | -1.81067 | 33932 ft | 460 kts | 27° |
| 2026-04-28 19:31 | 43.38985 | -1.76882 | 33936 ft | 460 kts | 28° |
| 2026-04-28 19:31 | 43.44386 | -1.72148 | 33949 ft | 461 kts | 32° |
| 2026-04-28 19:32 | 43.49703 | -1.67199 | 33945 ft | 462 kts | 32° |
| 2026-04-28 19:32 | 43.55042 | -1.62277 | 33939 ft | 462 kts | 32° |
| 2026-04-28 19:33 | 43.60407 | -1.57388 | 33950 ft | 462 kts | 32° |
| 2026-04-28 19:33 | 43.65779 | -1.52506 | 33940 ft | 463 kts | 31° |
| 2026-04-28 19:34 | 43.71166 | -1.47601 | 33942 ft | 464 kts | 32° |
| 2026-04-28 19:34 | 43.76552 | -1.42684 | 33939 ft | 465 kts | 32° |
| 2026-04-28 19:35 | 43.81951 | -1.37743 | 33939 ft | 466 kts | 32° |
| 2026-04-28 19:35 | 43.87360 | -1.32781 | 33942 ft | 467 kts | 32° |
| 2026-04-28 19:36 | 43.92781 | -1.27798 | 33943 ft | 468 kts | 32° |
| 2026-04-28 19:36 | 43.98165 | -1.22837 | 33945 ft | 468 kts | 32° |
| 2026-04-28 19:37 | 44.02712 | -1.18638 | 33975 ft | 468 kts | 32° |
| 2026-04-28 19:37 | 44.09017 | -1.12803 | 33946 ft | 469 kts | 32° |
| 2026-04-28 19:38 | 44.14445 | -1.07768 | 33953 ft | 469 kts | 32° |
| 2026-04-28 19:38 | 44.19861 | -1.02733 | 33958 ft | 468 kts | 32° |